sensor_id;sensor_type;location;lat;lon;timestamp;pressure;altitude;pressure_sealevel;temperature;humidity
36726;BME280;44936;52.086;5.150;2023-02-08T00:01:37;104290.28;;;-0.13;100.00
36726;BME280;44936;52.086;5.150;2023-02-08T00:04:03;104229.81;;;-0.41;100.00
36726;BME280;44936;52.086;5.150;2023-02-08T00:06:30;104271.59;;;-0.19;100.00
36726;BME280;44936;52.086;5.150;2023-02-08T00:08:55;104289.09;;;-0.08;100.00
36726;BME280;44936;52.086;5.150;2023-02-08T00:11:21;104286.31;;;-0.09;100.00
36726;BME280;44936;52.086;5.150;2023-02-08T00:13:46;104257.94;;;-0.26;100.00
36726;BME280;44936;52.086;5.150;2023-02-08T00:16:13;104282.53;;;-0.13;100.00
36726;BME280;44936;52.086;5.150;2023-02-08T00:18:39;104278.75;;;-0.16;100.00
36726;BME280;44936;52.086;5.150;2023-02-08T00:21:13;104244.53;;;-0.40;100.00
36726;BME280;44936;52.086;5.150;2023-02-08T00:23:39;104255.91;;;-0.38;100.00
36726;BME280;44936;52.086;5.150;2023-02-08T00:26:06;104265.34;;;-0.30;100.00
36726;BME280;44936;52.086;5.150;2023-02-08T00:28:32;104283.16;;;-0.15;100.00
36726;BME280;44936;52.086;5.150;2023-02-08T00:30:57;104272.50;;;-0.18;100.00
36726;BME280;44936;52.086;5.150;2023-02-08T00:33:23;104180.78;;;-0.58;100.00
36726;BME280;44936;52.086;5.150;2023-02-08T00:35:48;104253.72;;;-0.17;100.00
36726;BME280;44936;52.086;5.150;2023-02-08T00:38:14;104223.47;;;-0.27;100.00
36726;BME280;44936;52.086;5.150;2023-02-08T00:40:39;104242.44;;;-0.18;100.00
36726;BME280;44936;52.086;5.150;2023-02-08T00:43:04;104245.97;;;-0.17;100.00
36726;BME280;44936;52.086;5.150;2023-02-08T00:45:32;104218.47;;;-0.34;100.00
36726;BME280;44936;52.086;5.150;2023-02-08T00:47:57;104174.44;;;-0.53;100.00
36726;BME280;44936;52.086;5.150;2023-02-08T00:50:23;104191.28;;;-0.39;100.00
36726;BME280;44936;52.086;5.150;2023-02-08T00:52:48;104210.56;;;-0.36;100.00
36726;BME280;44936;52.086;5.150;2023-02-08T00:55:13;104234.88;;;-0.25;100.00
36726;BME280;44936;52.086;5.150;2023-02-08T00:57:39;104198.25;;;-0.47;100.00
36726;BME280;44936;52.086;5.150;2023-02-08T01:00:05;104230.47;;;-0.26;100.00
36726;BME280;44936;52.086;5.150;2023-02-08T01:02:31;104233.47;;;-0.30;100.00
36726;BME280;44936;52.086;5.150;2023-02-08T01:04:56;104245.03;;;-0.26;100.00
36726;BME280;44936;52.086;5.150;2023-02-08T01:07:22;104243.81;;;-0.30;100.00
36726;BME280;44936;52.086;5.150;2023-02-08T01:09:47;104243.50;;;-0.33;100.00
36726;BME280;44936;52.086;5.150;2023-02-08T01:12:12;104244.41;;;-0.33;100.00
36726;BME280;44936;52.086;5.150;2023-02-08T01:14:39;104246.22;;;-0.40;100.00
36726;BME280;44936;52.086;5.150;2023-02-08T01:17:04;104252.16;;;-0.33;100.00
36726;BME280;44936;52.086;5.150;2023-02-08T01:19:30;104257.47;;;-0.31;100.00
36726;BME280;44936;52.086;5.150;2023-02-08T01:21:55;104261.41;;;-0.35;100.00
36726;BME280;44936;52.086;5.150;2023-02-08T01:24:21;104241.78;;;-0.50;100.00
36726;BME280;44936;52.086;5.150;2023-02-08T01:26:46;104262.88;;;-0.37;100.00
36726;BME280;44936;52.086;5.150;2023-02-08T01:29:12;104225.22;;;-0.61;100.00
36726;BME280;44936;52.086;5.150;2023-02-08T01:31:40;104233.75;;;-0.53;100.00
36726;BME280;44936;52.086;5.150;2023-02-08T01:34:07;104269.88;;;-0.36;100.00
36726;BME280;44936;52.086;5.150;2023-02-08T01:36:33;104268.06;;;-0.37;100.00
36726;BME280;44936;52.086;5.150;2023-02-08T01:39:00;104239.97;;;-0.51;100.00
36726;BME280;44936;52.086;5.150;2023-02-08T01:41:28;104263.34;;;-0.41;100.00
36726;BME280;44936;52.086;5.150;2023-02-08T01:44:02;104243.59;;;-0.49;100.00
36726;BME280;44936;52.086;5.150;2023-02-08T01:46:29;104262.59;;;-0.40;100.00
36726;BME280;44936;52.086;5.150;2023-02-08T01:49:02;104253.47;;;-0.45;100.00
36726;BME280;44936;52.086;5.150;2023-02-08T01:51:33;104248.47;;;-0.52;100.00
36726;BME280;44936;52.086;5.150;2023-02-08T01:54:01;104260.94;;;-0.39;100.00
36726;BME280;44936;52.086;5.150;2023-02-08T01:56:31;104259.72;;;-0.43;100.00
36726;BME280;44936;52.086;5.150;2023-02-08T01:59:01;104222.44;;;-0.71;100.00
36726;BME280;44936;52.086;5.150;2023-02-08T02:01:29;104224.09;;;-0.71;100.00
36726;BME280;44936;52.086;5.150;2023-02-08T02:03:56;104271.38;;;-0.46;100.00
36726;BME280;44936;52.086;5.150;2023-02-08T02:06:28;104268.00;;;-0.54;100.00
36726;BME280;44936;52.086;5.150;2023-02-08T02:09:11;104245.38;;;-0.65;100.00
36726;BME280;44936;52.086;5.150;2023-02-08T02:11:38;104277.88;;;-0.50;100.00
36726;BME280;44936;52.086;5.150;2023-02-08T02:14:04;104270.13;;;-0.59;100.00
36726;BME280;44936;52.086;5.150;2023-02-08T02:16:30;104276.19;;;-0.58;100.00
36726;BME280;44936;52.086;5.150;2023-02-08T02:18:55;104271.78;;;-0.59;100.00
36726;BME280;44936;52.086;5.150;2023-02-08T02:31:03;104268.75;;;-0.55;100.00
36726;BME280;44936;52.086;5.150;2023-02-08T02:36:05;104263.94;;;-0.52;100.00
36726;BME280;44936;52.086;5.150;2023-02-08T02:41:34;104265.25;;;-0.55;100.00
36726;BME280;44936;52.086;5.150;2023-02-08T02:46:57;104257.38;;;-0.57;100.00
36726;BME280;44936;52.086;5.150;2023-02-08T02:49:31;104259.53;;;-0.53;100.00
36726;BME280;44936;52.086;5.150;2023-02-08T02:54:32;104259.94;;;-0.57;100.00
36726;BME280;44936;52.086;5.150;2023-02-08T02:57:06;104249.50;;;-0.59;100.00
36726;BME280;44936;52.086;5.150;2023-02-08T02:59:35;104252.72;;;-0.52;100.00
36726;BME280;44936;52.086;5.150;2023-02-08T03:02:02;104251.94;;;-0.51;100.00
36726;BME280;44936;52.086;5.150;2023-02-08T03:12:26;104238.38;;;-0.66;100.00
36726;BME280;44936;52.086;5.150;2023-02-08T03:17:37;104230.19;;;-0.62;100.00
36726;BME280;44936;52.086;5.150;2023-02-08T03:20:13;104237.78;;;-0.64;100.00
36726;BME280;44936;52.086;5.150;2023-02-08T03:25:20;104245.25;;;-0.58;100.00
36726;BME280;44936;52.086;5.150;2023-02-08T03:28:04;104249.34;;;-0.60;100.00
36726;BME280;44936;52.086;5.150;2023-02-08T03:33:21;104241.25;;;-0.63;100.00
36726;BME280;44936;52.086;5.150;2023-02-08T03:35:50;104257.84;;;-0.61;100.00
36726;BME280;44936;52.086;5.150;2023-02-08T03:38:27;104255.25;;;-0.61;100.00
36726;BME280;44936;52.086;5.150;2023-02-08T03:40:55;104259.13;;;-0.73;100.00
36726;BME280;44936;52.086;5.150;2023-02-08T03:43:26;104261.59;;;-0.66;100.00
36726;BME280;44936;52.086;5.150;2023-02-08T03:46:22;104268.28;;;-0.60;100.00
36726;BME280;44936;52.086;5.150;2023-02-08T03:48:54;104263.72;;;-0.62;100.00
36726;BME280;44936;52.086;5.150;2023-02-08T03:51:21;104271.44;;;-0.62;100.00
36726;BME280;44936;52.086;5.150;2023-02-08T03:53:50;104259.13;;;-0.73;100.00
36726;BME280;44936;52.086;5.150;2023-02-08T03:56:25;104268.88;;;-0.62;100.00
36726;BME280;44936;52.086;5.150;2023-02-08T03:58:58;104258.84;;;-0.68;100.00
36726;BME280;44936;52.086;5.150;2023-02-08T04:01:41;104258.72;;;-0.69;100.00
36726;BME280;44936;52.086;5.150;2023-02-08T04:04:09;104252.91;;;-0.75;100.00
36726;BME280;44936;52.086;5.150;2023-02-08T04:06:36;104248.66;;;-0.75;100.00
36726;BME280;44936;52.086;5.150;2023-02-08T04:09:01;104265.19;;;-0.73;100.00
36726;BME280;44936;52.086;5.150;2023-02-08T04:11:27;104269.88;;;-0.77;100.00
36726;BME280;44936;52.086;5.150;2023-02-08T04:13:52;104265.78;;;-0.75;100.00
36726;BME280;44936;52.086;5.150;2023-02-08T04:16:17;104268.38;;;-0.75;100.00
36726;BME280;44936;52.086;5.150;2023-02-08T04:18:43;104277.03;;;-0.75;100.00
36726;BME280;44936;52.086;5.150;2023-02-08T04:21:08;104269.41;;;-0.82;100.00
36726;BME280;44936;52.086;5.150;2023-02-08T04:23:33;104267.31;;;-0.77;100.00
36726;BME280;44936;52.086;5.150;2023-02-08T04:25:59;104265.31;;;-0.80;100.00
36726;BME280;44936;52.086;5.150;2023-02-08T04:28:28;104268.38;;;-0.75;100.00
36726;BME280;44936;52.086;5.150;2023-02-08T04:30:54;104270.78;;;-0.77;100.00
36726;BME280;44936;52.086;5.150;2023-02-08T04:33:23;104270.94;;;-0.75;100.00
36726;BME280;44936;52.086;5.150;2023-02-08T04:35:48;104263.66;;;-0.79;100.00
36726;BME280;44936;52.086;5.150;2023-02-08T04:38:13;104233.56;;;-0.96;100.00
36726;BME280;44936;52.086;5.150;2023-02-08T04:40:39;104250.13;;;-0.86;100.00
36726;BME280;44936;52.086;5.150;2023-02-08T04:43:04;104232.66;;;-0.97;100.00
36726;BME280;44936;52.086;5.150;2023-02-08T04:45:29;104221.88;;;-1.01;100.00
36726;BME280;44936;52.086;5.150;2023-02-08T04:47:56;104244.97;;;-0.86;100.00
36726;BME280;44936;52.086;5.150;2023-02-08T04:50:22;104253.94;;;-0.82;100.00
36726;BME280;44936;52.086;5.150;2023-02-08T04:52:47;104247.56;;;-0.86;100.00
36726;BME280;44936;52.086;5.150;2023-02-08T04:55:12;104240.88;;;-0.83;100.00
36726;BME280;44936;52.086;5.150;2023-02-08T04:57:38;104240.59;;;-0.87;100.00
36726;BME280;44936;52.086;5.150;2023-02-08T05:00:04;104244.34;;;-0.92;100.00
36726;BME280;44936;52.086;5.150;2023-02-08T05:02:30;104240.59;;;-0.87;100.00
36726;BME280;44936;52.086;5.150;2023-02-08T05:04:56;104229.78;;;-0.91;100.00
36726;BME280;44936;52.086;5.150;2023-02-08T05:07:21;104220.50;;;-0.98;100.00
36726;BME280;44936;52.086;5.150;2023-02-08T05:09:46;104230.81;;;-0.98;100.00
36726;BME280;44936;52.086;5.150;2023-02-08T05:12:11;104220.34;;;-0.99;100.00
36726;BME280;44936;52.086;5.150;2023-02-08T05:14:37;104226.16;;;-0.93;100.00
36726;BME280;44936;52.086;5.150;2023-02-08T05:17:02;104226.91;;;-0.94;100.00
36726;BME280;44936;52.086;5.150;2023-02-08T05:19:28;104229.34;;;-0.96;100.00
36726;BME280;44936;52.086;5.150;2023-02-08T05:21:53;104234.13;;;-0.99;100.00
36726;BME280;44936;52.086;5.150;2023-02-08T05:24:18;104229.91;;;-0.98;100.00
36726;BME280;44936;52.086;5.150;2023-02-08T05:26:43;104223.38;;;-1.03;100.00
36726;BME280;44936;52.086;5.150;2023-02-08T05:29:09;104225.34;;;-1.01;100.00
36726;BME280;44936;52.086;5.150;2023-02-08T05:31:34;104224.44;;;-1.01;100.00
36726;BME280;44936;52.086;5.150;2023-02-08T05:34:00;104224.75;;;-0.98;100.00
36726;BME280;44936;52.086;5.150;2023-02-08T05:36:26;104217.19;;;-0.97;100.00
36726;BME280;44936;52.086;5.150;2023-02-08T05:38:51;104210.94;;;-0.99;100.00
36726;BME280;44936;52.086;5.150;2023-02-08T05:41:17;104203.81;;;-1.01;100.00
36726;BME280;44936;52.086;5.150;2023-02-08T05:43:43;104181.97;;;-1.13;100.00
36726;BME280;44936;52.086;5.150;2023-02-08T05:46:08;104191.41;;;-1.05;100.00
36726;BME280;44936;52.086;5.150;2023-02-08T05:48:34;104184.13;;;-1.01;100.00
36726;BME280;44936;52.086;5.150;2023-02-08T05:50:59;104191.25;;;-0.98;100.00
36726;BME280;44936;52.086;5.150;2023-02-08T05:53:25;104187.63;;;-1.00;100.00
36726;BME280;44936;52.086;5.150;2023-02-08T05:55:51;104170.19;;;-1.03;100.00
36726;BME280;44936;52.086;5.150;2023-02-08T05:58:17;104177.16;;;-1.02;100.00
36726;BME280;44936;52.086;5.150;2023-02-08T06:00:42;104165.19;;;-1.01;100.00
36726;BME280;44936;52.086;5.150;2023-02-08T06:03:08;104161.22;;;-1.06;100.00
36726;BME280;44936;52.086;5.150;2023-02-08T06:05:36;104147.13;;;-1.10;100.00
36726;BME280;44936;52.086;5.150;2023-02-08T06:08:02;104151.22;;;-1.12;100.00
36726;BME280;44936;52.086;5.150;2023-02-08T06:10:27;104173.75;;;-1.18;100.00
36726;BME280;44936;52.086;5.150;2023-02-08T06:12:53;104183.28;;;-1.17;100.00
36726;BME280;44936;52.086;5.150;2023-02-08T06:15:18;104180.59;;;-1.10;100.00
36726;BME280;44936;52.086;5.150;2023-02-08T06:17:43;104200.78;;;-1.06;100.00
36726;BME280;44936;52.086;5.150;2023-02-08T06:20:09;104205.66;;;-1.25;100.00
36726;BME280;44936;52.086;5.150;2023-02-08T06:22:35;104192.22;;;-1.22;100.00
36726;BME280;44936;52.086;5.150;2023-02-08T06:25:00;104209.81;;;-1.18;100.00
36726;BME280;44936;52.086;5.150;2023-02-08T06:27:26;104231.72;;;-1.06;100.00
36726;BME280;44936;52.086;5.150;2023-02-08T06:29:52;104224.09;;;-1.13;100.00
36726;BME280;44936;52.086;5.150;2023-02-08T06:32:17;104233.53;;;-1.05;100.00
36726;BME280;44936;52.086;5.150;2023-02-08T06:34:43;104245.75;;;-1.11;100.00
36726;BME280;44936;52.086;5.150;2023-02-08T06:37:08;104243.94;;;-1.12;100.00
36726;BME280;44936;52.086;5.150;2023-02-08T06:39:33;104247.47;;;-1.03;100.00
36726;BME280;44936;52.086;5.150;2023-02-08T06:42:00;104258.03;;;-1.08;100.00
36726;BME280;44936;52.086;5.150;2023-02-08T06:44:25;104268.19;;;-1.10;100.00
36726;BME280;44936;52.086;5.150;2023-02-08T06:46:51;104275.41;;;-1.23;100.00
36726;BME280;44936;52.086;5.150;2023-02-08T06:49:17;104306.81;;;-1.10;100.00
36726;BME280;44936;52.086;5.150;2023-02-08T06:51:42;104297.69;;;-1.15;100.00
36726;BME280;44936;52.086;5.150;2023-02-08T06:54:08;104304.41;;;-1.08;100.00
36726;BME280;44936;52.086;5.150;2023-02-08T06:56:34;104295.16;;;-1.06;100.00
36726;BME280;44936;52.086;5.150;2023-02-08T06:58:59;104296.56;;;-1.01;100.00
36726;BME280;44936;52.086;5.150;2023-02-08T07:01:24;104282.88;;;-1.09;100.00
36726;BME280;44936;52.086;5.150;2023-02-08T07:03:49;104287.19;;;-1.01;100.00
36726;BME280;44936;52.086;5.150;2023-02-08T07:06:17;104274.59;;;-0.98;100.00
36726;BME280;44936;52.086;5.150;2023-02-08T07:08:42;104264.59;;;-1.03;100.00
36726;BME280;44936;52.086;5.150;2023-02-08T07:11:10;104252.47;;;-1.04;100.00
36726;BME280;44936;52.086;5.150;2023-02-08T07:13:36;104249.00;;;-1.05;100.00
36726;BME280;44936;52.086;5.150;2023-02-08T07:16:03;104243.38;;;-1.01;100.00
36726;BME280;44936;52.086;5.150;2023-02-08T07:18:28;104247.47;;;-1.03;100.00
36726;BME280;44936;52.086;5.150;2023-02-08T07:20:54;104246.59;;;-0.95;100.00
36726;BME280;44936;52.086;5.150;2023-02-08T07:23:19;104245.69;;;-0.95;100.00
36726;BME280;44936;52.086;5.150;2023-02-08T07:25:44;104243.22;;;-1.02;100.00
36726;BME280;44936;52.086;5.150;2023-02-08T07:28:10;104229.59;;;-1.01;100.00
36726;BME280;44936;52.086;5.150;2023-02-08T07:30:35;104257.81;;;-0.94;100.00
36726;BME280;44936;52.086;5.150;2023-02-08T07:33:01;104253.75;;;-0.92;100.00
36726;BME280;44936;52.086;5.150;2023-02-08T07:35:26;104251.47;;;-0.89;100.00
36726;BME280;44936;52.086;5.150;2023-02-08T07:37:51;104221.22;;;-1.07;100.00
36726;BME280;44936;52.086;5.150;2023-02-08T07:40:17;104248.72;;;-0.91;100.00
36726;BME280;44936;52.086;5.150;2023-02-08T07:42:42;104244.03;;;-0.95;100.00
36726;BME280;44936;52.086;5.150;2023-02-08T07:45:07;104245.09;;;-0.93;100.00
36726;BME280;44936;52.086;5.150;2023-02-08T07:47:33;104247.66;;;-0.93;100.00
36726;BME280;44936;52.086;5.150;2023-02-08T07:49:58;104233.28;;;-1.15;100.00
36726;BME280;44936;52.086;5.150;2023-02-08T07:52:23;104273.69;;;-0.98;100.00
36726;BME280;44936;52.086;5.150;2023-02-08T07:54:49;104294.16;;;-1.00;100.00
36726;BME280;44936;52.086;5.150;2023-02-08T07:57:14;104293.19;;;-1.09;100.00
36726;BME280;44936;52.086;5.150;2023-02-08T07:59:45;104326.34;;;-0.96;100.00
36726;BME280;44936;52.086;5.150;2023-02-08T08:02:13;104355.38;;;-1.06;100.00
36726;BME280;44936;52.086;5.150;2023-02-08T08:04:38;104369.88;;;-1.06;100.00
36726;BME280;44936;52.086;5.150;2023-02-08T08:07:04;104374.69;;;-0.94;100.00
36726;BME280;44936;52.086;5.150;2023-02-08T08:09:29;104380.16;;;-0.91;100.00
36726;BME280;44936;52.086;5.150;2023-02-08T08:11:54;104382.72;;;-0.91;100.00
36726;BME280;44936;52.086;5.150;2023-02-08T08:14:20;104372.66;;;-0.80;100.00
36726;BME280;44936;52.086;5.150;2023-02-08T08:16:45;104385.81;;;-0.86;100.00
36726;BME280;44936;52.086;5.150;2023-02-08T08:19:10;104400.09;;;-0.81;100.00
36726;BME280;44936;52.086;5.150;2023-02-08T08:21:36;104406.00;;;-0.82;100.00
36726;BME280;44936;52.086;5.150;2023-02-08T08:24:01;104392.56;;;-0.71;100.00
36726;BME280;44936;52.086;5.150;2023-02-08T08:26:26;104397.03;;;-0.86;100.00
36726;BME280;44936;52.086;5.150;2023-02-08T08:28:53;104402.22;;;-0.61;100.00
36726;BME280;44936;52.086;5.150;2023-02-08T08:31:20;104406.41;;;-0.70;100.00
36726;BME280;44936;52.086;5.150;2023-02-08T08:33:46;104417.94;;;-0.67;100.00
36726;BME280;44936;52.086;5.150;2023-02-08T08:36:11;104420.56;;;-0.58;100.00
36726;BME280;44936;52.086;5.150;2023-02-08T08:38:37;104403.00;;;-0.78;100.00
36726;BME280;44936;52.086;5.150;2023-02-08T08:41:12;104434.47;;;-0.65;100.00
36726;BME280;44936;52.086;5.150;2023-02-08T08:43:39;104441.59;;;-0.62;100.00
36726;BME280;44936;52.086;5.150;2023-02-08T08:46:05;104434.53;;;-0.56;100.00
36726;BME280;44936;52.086;5.150;2023-02-08T08:48:32;104443.69;;;-0.51;100.00
36726;BME280;44936;52.086;5.150;2023-02-08T08:50:58;104438.97;;;-0.46;100.00
36726;BME280;44936;52.086;5.150;2023-02-08T08:53:23;104433.41;;;-0.42;100.00
36726;BME280;44936;52.086;5.150;2023-02-08T08:55:49;104433.25;;;-0.44;100.00
36726;BME280;44936;52.086;5.150;2023-02-08T08:58:15;104448.03;;;-0.34;100.00
36726;BME280;44936;52.086;5.150;2023-02-08T09:00:40;104433.31;;;-0.35;100.00
36726;BME280;44936;52.086;5.150;2023-02-08T09:03:05;104436.19;;;-0.32;100.00
36726;BME280;44936;52.086;5.150;2023-02-08T09:05:30;104437.41;;;-0.29;100.00
36726;BME280;44936;52.086;5.150;2023-02-08T09:07:56;104442.91;;;-0.25;100.00
36726;BME280;44936;52.086;5.150;2023-02-08T09:10:21;104441.25;;;-0.25;100.00
36726;BME280;44936;52.086;5.150;2023-02-08T09:12:47;104453.53;;;-0.22;100.00
36726;BME280;44936;52.086;5.150;2023-02-08T09:15:12;104467.72;;;-0.10;100.00
36726;BME280;44936;52.086;5.150;2023-02-08T09:17:37;104453.75;;;-0.12;100.00
36726;BME280;44936;52.086;5.150;2023-02-08T09:20:04;104461.06;;;-0.08;100.00
36726;BME280;44936;52.086;5.150;2023-02-08T09:22:29;104470.94;;;-0.04;100.00
36726;BME280;44936;52.086;5.150;2023-02-08T09:24:54;104480.41;;;0.04;100.00
36726;BME280;44936;52.086;5.150;2023-02-08T09:27:20;104462.78;;;0.00;100.00
36726;BME280;44936;52.086;5.150;2023-02-08T09:29:45;104474.06;;;0.09;100.00
36726;BME280;44936;52.086;5.150;2023-02-08T09:32:11;104478.47;;;0.10;100.00
36726;BME280;44936;52.086;5.150;2023-02-08T09:34:36;104463.09;;;0.03;100.00
36726;BME280;44936;52.086;5.150;2023-02-08T09:37:01;104471.31;;;0.16;100.00
36726;BME280;44936;52.086;5.150;2023-02-08T09:39:27;104476.97;;;0.21;100.00
36726;BME280;44936;52.086;5.150;2023-02-08T09:42:15;104467.13;;;0.34;100.00
36726;BME280;44936;52.086;5.150;2023-02-08T09:45:02;104471.13;;;0.39;100.00
36726;BME280;44936;52.086;5.150;2023-02-08T09:47:34;104468.25;;;0.45;100.00
36726;BME280;44936;52.086;5.150;2023-02-08T09:55:16;104476.47;;;0.49;100.00
36726;BME280;44936;52.086;5.150;2023-02-08T09:57:46;104462.03;;;0.60;100.00
36726;BME280;44936;52.086;5.150;2023-02-08T10:00:15;104464.63;;;0.60;100.00
36726;BME280;44936;52.086;5.150;2023-02-08T10:02:43;104456.75;;;0.67;100.00
36726;BME280;44936;52.086;5.150;2023-02-08T10:05:11;104466.78;;;0.73;100.00
36726;BME280;44936;52.086;5.150;2023-02-08T10:07:39;104472.09;;;0.74;100.00
36726;BME280;44936;52.086;5.150;2023-02-08T10:10:11;104463.59;;;0.84;100.00
36726;BME280;44936;52.086;5.150;2023-02-08T10:12:52;104469.56;;;0.92;100.00
36726;BME280;44936;52.086;5.150;2023-02-08T10:18:24;104470.91;;;0.97;100.00
36726;BME280;44936;52.086;5.150;2023-02-08T10:26:13;104483.41;;;1.18;100.00
36726;BME280;44936;52.086;5.150;2023-02-08T10:28:53;104492.50;;;1.23;100.00
36726;BME280;44936;52.086;5.150;2023-02-08T10:31:53;104495.28;;;1.25;100.00
36726;BME280;44936;52.086;5.150;2023-02-08T10:34:44;104491.00;;;1.34;100.00
36726;BME280;44936;52.086;5.150;2023-02-08T10:37:26;104499.19;;;1.47;100.00
36726;BME280;44936;52.086;5.150;2023-02-08T10:39:53;104493.88;;;1.46;100.00
36726;BME280;44936;52.086;5.150;2023-02-08T10:42:21;104487.03;;;1.46;100.00
36726;BME280;44936;52.086;5.150;2023-02-08T10:47:35;104474.84;;;1.54;100.00
36726;BME280;44936;52.086;5.150;2023-02-08T10:50:11;104471.50;;;1.55;100.00
36726;BME280;44936;52.086;5.150;2023-02-08T10:52:40;104463.88;;;1.56;100.00
36726;BME280;44936;52.086;5.150;2023-02-08T10:55:17;104447.00;;;1.60;100.00
36726;BME280;44936;52.086;5.150;2023-02-08T10:57:45;104448.47;;;1.66;100.00
36726;BME280;44936;52.086;5.150;2023-02-08T11:00:23;104441.94;;;1.70;100.00
36726;BME280;44936;52.086;5.150;2023-02-08T11:02:51;104443.59;;;1.78;100.00
36726;BME280;44936;52.086;5.150;2023-02-08T11:05:20;104431.22;;;1.84;100.00
36726;BME280;44936;52.086;5.150;2023-02-08T11:08:16;104426.94;;;1.85;100.00
36726;BME280;44936;52.086;5.150;2023-02-08T11:10:54;104413.84;;;1.92;100.00
36726;BME280;44936;52.086;5.150;2023-02-08T11:13:20;104391.03;;;1.88;100.00
36726;BME280;44936;52.086;5.150;2023-02-08T11:15:51;104407.25;;;2.04;100.00
36726;BME280;44936;52.086;5.150;2023-02-08T11:20:58;104397.03;;;2.06;100.00
36726;BME280;44936;52.086;5.150;2023-02-08T11:23:27;104377.63;;;2.11;100.00
36726;BME280;44936;52.086;5.150;2023-02-08T11:25:53;104386.78;;;2.16;100.00
36726;BME280;44936;52.086;5.150;2023-02-08T11:28:26;104370.31;;;2.15;100.00
36726;BME280;44936;52.086;5.150;2023-02-08T11:31:02;104366.47;;;2.20;100.00
36726;BME280;44936;52.086;5.150;2023-02-08T11:33:32;104355.38;;;2.21;100.00
36726;BME280;44936;52.086;5.150;2023-02-08T11:36:04;104372.34;;;2.28;100.00
36726;BME280;44936;52.086;5.150;2023-02-08T11:38:32;104366.56;;;2.31;100.00
36726;BME280;44936;52.086;5.150;2023-02-08T11:41:00;104357.41;;;2.34;100.00
36726;BME280;44936;52.086;5.150;2023-02-08T11:43:34;104345.78;;;2.39;100.00
36726;BME280;44936;52.086;5.150;2023-02-08T11:46:01;104338.28;;;2.42;100.00
36726;BME280;44936;52.086;5.150;2023-02-08T11:48:42;104339.19;;;2.43;100.00
36726;BME280;44936;52.086;5.150;2023-02-08T11:51:13;104344.03;;;2.48;100.00
36726;BME280;44936;52.086;5.150;2023-02-08T11:53:41;104325.91;;;2.48;100.00
36726;BME280;44936;52.086;5.150;2023-02-08T11:58:40;104315.03;;;2.52;100.00
36726;BME280;44936;52.086;5.150;2023-02-08T12:01:36;104311.66;;;2.53;100.00
36726;BME280;44936;52.086;5.150;2023-02-08T12:04:05;104313.03;;;2.59;100.00
36726;BME280;44936;52.086;5.150;2023-02-08T12:12:01;104296.47;;;2.67;100.00
36726;BME280;44936;52.086;5.150;2023-02-08T12:20:05;104281.53;;;2.83;100.00
36726;BME280;44936;52.086;5.150;2023-02-08T12:22:41;104240.84;;;2.63;100.00
36726;BME280;44936;52.086;5.150;2023-02-08T12:25:23;104274.41;;;2.91;100.00
36726;BME280;44936;52.086;5.150;2023-02-08T12:36:14;104258.31;;;3.13;100.00
36726;BME280;44936;52.086;5.150;2023-02-08T12:39:11;104226.75;;;3.09;100.00
36726;BME280;44936;52.086;5.150;2023-02-08T12:47:39;104198.16;;;3.28;100.00
36726;BME280;44936;52.086;5.150;2023-02-08T12:50:21;104205.31;;;3.40;100.00
36726;BME280;44936;52.086;5.150;2023-02-08T12:52:59;104197.41;;;3.39;100.00
36726;BME280;44936;52.086;5.150;2023-02-08T12:55:34;104198.44;;;3.41;100.00
36726;BME280;44936;52.086;5.150;2023-02-08T13:00:51;104170.00;;;3.53;100.00
36726;BME280;44936;52.086;5.150;2023-02-08T13:03:34;104173.50;;;3.53;100.00
36726;BME280;44936;52.086;5.150;2023-02-08T13:06:04;104166.25;;;3.59;100.00
36726;BME280;44936;52.086;5.150;2023-02-08T13:08:43;104150.97;;;3.62;100.00
36726;BME280;44936;52.086;5.150;2023-02-08T13:11:16;104148.63;;;3.55;100.00
36726;BME280;44936;52.086;5.150;2023-02-08T13:13:50;104147.44;;;3.72;100.00
36726;BME280;44936;52.086;5.150;2023-02-08T13:16:40;104144.44;;;3.78;100.00
36726;BME280;44936;52.086;5.150;2023-02-08T13:21:52;104127.28;;;3.80;100.00
36726;BME280;44936;52.086;5.150;2023-02-08T13:26:46;104121.59;;;3.84;100.00
36726;BME280;44936;52.086;5.150;2023-02-08T13:29:17;104124.28;;;3.95;100.00
36726;BME280;44936;52.086;5.150;2023-02-08T13:31:46;104110.94;;;3.91;100.00
36726;BME280;44936;52.086;5.150;2023-02-08T13:36:51;104107.13;;;3.97;100.00
36726;BME280;44936;52.086;5.150;2023-02-08T13:39:40;104107.50;;;4.02;100.00
36726;BME280;44936;52.086;5.150;2023-02-08T13:42:18;104090.91;;;4.00;100.00
36726;BME280;44936;52.086;5.150;2023-02-08T13:44:50;104082.44;;;4.03;100.00
36726;BME280;44936;52.086;5.150;2023-02-08T13:47:28;104089.19;;;4.11;100.00
36726;BME280;44936;52.086;5.150;2023-02-08T13:58:24;104035.03;;;4.05;100.00
36726;BME280;44936;52.086;5.150;2023-02-08T14:03:22;104037.34;;;4.12;100.00
36726;BME280;44936;52.086;5.150;2023-02-08T14:06:17;104046.78;;;4.22;100.00
36726;BME280;44936;52.086;5.150;2023-02-08T14:08:58;104041.75;;;4.13;100.00
36726;BME280;44936;52.086;5.150;2023-02-08T14:14:24;104054.03;;;4.26;100.00
36726;BME280;44936;52.086;5.150;2023-02-08T14:19:30;104020.00;;;4.23;100.00
36726;BME280;44936;52.086;5.150;2023-02-08T14:22:06;104036.38;;;4.22;100.00
36726;BME280;44936;52.086;5.150;2023-02-08T14:24:46;104036.19;;;4.31;100.00
36726;BME280;44936;52.086;5.150;2023-02-08T14:27:31;104014.47;;;4.18;100.00
36726;BME280;44936;52.086;5.150;2023-02-08T14:30:05;104006.09;;;4.22;100.00
36726;BME280;44936;52.086;5.150;2023-02-08T14:32:35;104020.63;;;4.31;100.00
36726;BME280;44936;52.086;5.150;2023-02-08T14:37:41;104003.63;;;4.24;100.00
36726;BME280;44936;52.086;5.150;2023-02-08T14:45:30;104009.31;;;4.30;100.00
36726;BME280;44936;52.086;5.150;2023-02-08T14:47:56;103989.09;;;4.26;100.00
36726;BME280;44936;52.086;5.150;2023-02-08T14:50:34;103996.88;;;4.26;100.00